createdAt,value
2024-02-08T00:00:17.184Z,2.10
2024-02-08T00:02:45.623Z,1.80
2024-02-08T00:05:13.962Z,1.80
2024-02-08T00:07:42.224Z,1.50
2024-02-08T00:10:10.729Z,1.90
2024-02-08T00:12:40.648Z,2.20
2024-02-08T00:15:10.783Z,1.60
2024-02-08T00:17:38.879Z,2.50
2024-02-08T00:20:08.465Z,1.53
2024-02-08T00:22:36.876Z,1.90
2024-02-08T00:25:05.192Z,1.60
2024-02-08T00:27:33.415Z,1.67
2024-02-08T00:30:03.652Z,1.70
2024-02-08T00:32:32.036Z,2.73
2024-02-08T00:35:06.879Z,4.30
2024-02-08T00:37:37.318Z,3.10
2024-02-08T00:40:09.299Z,4.00
2024-02-08T00:42:37.567Z,4.10
2024-02-08T00:45:07.877Z,3.63
2024-02-08T00:47:36.200Z,3.50
2024-02-08T00:50:04.663Z,3.57
2024-02-08T00:52:34.250Z,5.13
2024-02-08T00:55:02.889Z,3.33
2024-02-08T00:57:33.627Z,2.93
2024-02-08T01:00:02.587Z,3.70
2024-02-08T01:02:32.650Z,12.13
2024-02-08T01:05:00.809Z,12.00
2024-02-08T01:07:28.824Z,15.80
2024-02-08T01:09:56.804Z,13.60
2024-02-08T01:12:24.737Z,12.60
2024-02-08T01:14:53.077Z,11.63
2024-02-08T01:17:21.095Z,11.07
2024-02-08T01:19:51.460Z,11.33
2024-02-08T01:22:21.245Z,11.13
2024-02-08T01:24:49.973Z,12.70
2024-02-08T01:27:22.477Z,12.97
2024-02-08T01:29:51.661Z,12.57
2024-02-08T01:32:20.244Z,12.10
2024-02-08T01:34:48.553Z,12.50
2024-02-08T01:37:18.723Z,11.10
2024-02-08T01:39:46.907Z,11.77
2024-02-08T01:42:15.310Z,10.60
2024-02-08T01:44:47.292Z,12.40
2024-02-08T01:47:18.364Z,10.80
2024-02-08T01:49:47.721Z,11.03
2024-02-08T01:52:19.794Z,10.60
2024-02-08T01:54:51.031Z,10.77
2024-02-08T01:57:20.118Z,11.10
2024-02-08T01:59:54.420Z,11.33
2024-02-08T02:02:24.036Z,12.50
2024-02-08T02:04:52.685Z,11.27
2024-02-08T02:07:21.659Z,11.40
2024-02-08T02:09:51.298Z,11.63
2024-02-08T02:12:23.414Z,11.43
2024-02-08T02:14:53.468Z,11.40
2024-02-08T02:17:21.705Z,11.10
2024-02-08T02:19:50.077Z,10.80
2024-02-08T02:22:20.687Z,11.00
2024-02-08T02:24:50.556Z,10.97
2024-02-08T02:27:19.403Z,11.20
2024-02-08T02:29:54.678Z,11.37
2024-02-08T02:32:23.426Z,11.17
2024-02-08T02:34:52.762Z,11.47
2024-02-08T02:37:23.782Z,10.80
2024-02-08T02:39:54.007Z,11.20
2024-02-08T02:42:21.886Z,11.47
2024-02-08T02:44:49.759Z,11.40
2024-02-08T02:47:21.621Z,11.20
2024-02-08T02:49:49.541Z,11.73
2024-02-08T02:52:17.387Z,11.37
2024-02-08T02:54:46.599Z,11.57
2024-02-08T02:57:16.088Z,11.90
2024-02-08T02:59:44.051Z,11.70
2024-02-08T03:02:11.999Z,11.73
2024-02-08T03:04:41.277Z,11.63
2024-02-08T03:07:11.872Z,11.60
2024-02-08T03:09:40.203Z,11.57
2024-02-08T03:12:11.065Z,11.37
2024-02-08T03:14:39.166Z,12.00
2024-02-08T03:17:08.169Z,12.00
2024-02-08T03:19:36.919Z,11.67
2024-02-08T03:22:09.006Z,11.90
2024-02-08T03:24:38.081Z,11.27
2024-02-08T03:27:07.141Z,11.50
2024-02-08T03:29:36.790Z,12.20
2024-02-08T03:32:04.996Z,12.40
2024-02-08T03:34:36.577Z,12.53
2024-02-08T03:37:07.720Z,12.30
2024-02-08T03:39:36.791Z,2.80
2024-02-08T03:42:06.984Z,2.80
2024-02-08T03:44:36.293Z,2.40
2024-02-08T03:47:06.523Z,2.83
2024-02-08T03:49:35.023Z,2.20
2024-02-08T03:52:03.262Z,2.33
2024-02-08T03:54:32.376Z,2.80
2024-02-08T03:57:06.200Z,2.70
2024-02-08T03:59:34.951Z,2.90
2024-02-08T04:02:07.202Z,3.10
2024-02-08T04:04:50.942Z,3.17
2024-02-08T04:07:23.337Z,3.70
2024-02-08T04:10:12.047Z,3.40
2024-02-08T04:12:57.986Z,3.27
2024-02-08T04:15:46.211Z,3.90
2024-02-08T04:18:33.853Z,4.03
2024-02-08T04:21:20.031Z,4.07
2024-02-08T04:24:06.994Z,4.40
2024-02-08T04:26:53.009Z,3.97
2024-02-08T04:29:47.601Z,4.10
2024-02-08T04:32:33.840Z,4.50
2024-02-08T04:35:20.993Z,4.00
2024-02-08T04:38:07.396Z,6.00
2024-02-08T04:40:53.943Z,4.07
2024-02-08T04:43:40.021Z,3.70
2024-02-08T04:46:26.088Z,4.03
2024-02-08T04:49:12.042Z,3.60
2024-02-08T04:52:04.101Z,3.70
2024-02-08T04:54:33.601Z,3.83
2024-02-08T04:57:01.610Z,4.47
2024-02-08T04:59:29.624Z,7.10
2024-02-08T05:01:58.135Z,6.70
2024-02-08T05:04:26.086Z,5.87
2024-02-08T05:06:57.134Z,5.33
2024-02-08T05:09:25.306Z,5.43
2024-02-08T05:11:53.846Z,7.10
2024-02-08T05:14:23.502Z,8.23
2024-02-08T05:16:55.380Z,5.33
2024-02-08T05:19:24.789Z,7.90
2024-02-08T05:21:53.315Z,6.80
2024-02-08T05:24:22.600Z,5.53
2024-02-08T05:26:50.396Z,6.10
2024-02-08T05:29:20.739Z,7.60
2024-02-08T05:31:49.644Z,5.40
2024-02-08T05:34:18.758Z,5.13
2024-02-08T05:36:50.381Z,4.97
2024-02-08T05:39:25.769Z,4.87
2024-02-08T05:41:58.029Z,5.07
2024-02-08T05:44:31.289Z,5.10
2024-02-08T05:47:10.902Z,5.33
2024-02-08T05:49:46.678Z,5.17
2024-02-08T05:52:15.527Z,4.83
2024-02-08T05:54:47.632Z,6.70
2024-02-08T05:57:17.727Z,6.43
2024-02-08T05:59:46.903Z,8.60
2024-02-08T06:02:25.043Z,6.30
2024-02-08T06:05:01.724Z,6.17
2024-02-08T06:07:32.526Z,5.60
2024-02-08T06:10:14.393Z,8.27
2024-02-08T06:12:53.756Z,6.20
2024-02-08T06:15:27.139Z,6.10
2024-02-08T06:18:05.258Z,6.63
2024-02-08T06:20:41.494Z,12.60
2024-02-08T06:23:20.441Z,9.93
2024-02-08T06:26:09.898Z,13.23
2024-02-08T06:28:47.862Z,7.10
2024-02-08T06:31:18.963Z,6.37
2024-02-08T06:34:11.275Z,6.80
2024-02-08T06:36:43.707Z,6.47
2024-02-08T06:39:21.276Z,18.73
2024-02-08T06:41:53.898Z,14.57
2024-02-08T06:44:45.185Z,11.90
2024-02-08T06:47:52.026Z,7.27
2024-02-08T06:50:43.995Z,6.43
2024-02-08T06:53:30.026Z,8.10
2024-02-08T06:56:16.174Z,7.87
2024-02-08T06:59:02.196Z,8.97
2024-02-08T07:01:49.035Z,11.10
2024-02-08T07:04:35.264Z,13.67
2024-02-08T07:07:20.838Z,15.17
2024-02-08T07:10:09.335Z,11.50
2024-02-08T07:12:55.082Z,10.57
2024-02-08T07:15:40.543Z,8.93
2024-02-08T07:18:28.187Z,7.50
2024-02-08T07:21:14.127Z,7.53
2024-02-08T07:24:00.082Z,13.13
2024-02-08T07:26:46.140Z,9.83
2024-02-08T07:29:32.137Z,8.57
2024-02-08T07:32:18.349Z,14.23
2024-02-08T07:35:06.017Z,10.87
2024-02-08T07:37:37.417Z,15.20
2024-02-08T07:40:24.662Z,14.93
2024-02-08T07:42:54.408Z,13.80
2024-02-08T07:45:28.238Z,10.00
2024-02-08T07:48:09.654Z,9.17
2024-02-08T07:50:46.197Z,15.20
2024-02-08T07:53:35.354Z,10.50
2024-02-08T07:56:24.433Z,9.60
2024-02-08T07:58:53.696Z,17.57
2024-02-08T08:01:22.743Z,11.23
2024-02-08T08:03:51.383Z,12.83
2024-02-08T08:06:23.754Z,10.57
2024-02-08T08:08:58.751Z,10.60
2024-02-08T08:11:32.017Z,8.97
2024-02-08T08:14:10.556Z,9.27
2024-02-08T08:16:37.507Z,8.03
2024-02-08T08:19:14.412Z,8.23
2024-02-08T08:22:06.006Z,7.90
2024-02-08T08:24:53.338Z,7.90
2024-02-08T08:27:28.449Z,8.00
2024-02-08T08:29:59.644Z,6.17
2024-02-08T08:32:46.234Z,6.77
2024-02-08T08:35:47.221Z,8.60
2024-02-08T08:38:30.190Z,6.73
2024-02-08T08:41:16.498Z,6.63
2024-02-08T08:43:54.757Z,7.00
2024-02-08T08:46:25.098Z,5.97
2024-02-08T08:48:56.105Z,5.97
2024-02-08T08:51:32.164Z,7.47
2024-02-08T08:54:15.698Z,8.47
2024-02-08T08:56:44.142Z,7.60
2024-02-08T08:59:12.053Z,6.50
2024-02-08T09:01:41.954Z,8.70
2024-02-08T09:04:27.221Z,6.60
2024-02-08T09:06:55.662Z,5.70
2024-02-08T09:09:50.967Z,9.10
2024-02-08T09:12:29.151Z,6.23
2024-02-08T09:15:00.946Z,7.27
2024-02-08T09:17:44.873Z,8.87
2024-02-08T09:20:22.468Z,6.77
2024-02-08T09:22:51.521Z,6.53
2024-02-08T09:25:31.066Z,5.77
2024-02-08T09:28:25.616Z,6.20
2024-02-08T09:30:57.228Z,5.93
2024-02-08T09:33:45.691Z,6.73
2024-02-08T09:36:15.944Z,13.10
2024-02-08T09:38:51.851Z,5.93
2024-02-08T09:41:25.807Z,5.90
2024-02-08T09:43:58.001Z,17.00
2024-02-08T09:46:45.738Z,6.03
2024-02-08T09:49:16.198Z,7.10
2024-02-08T09:51:54.450Z,6.03
2024-02-08T09:54:30.014Z,7.40
2024-02-08T09:57:03.767Z,5.67
2024-02-08T10:00:00.630Z,4.50
2024-02-08T10:02:35.408Z,5.77
2024-02-08T10:05:18.828Z,5.83
2024-02-08T10:08:07.552Z,5.80
2024-02-08T10:10:45.061Z,6.53
2024-02-08T10:13:28.520Z,5.53
2024-02-08T10:15:57.828Z,5.20
2024-02-08T10:18:35.336Z,4.43
2024-02-08T10:21:14.104Z,11.67
2024-02-08T10:23:50.082Z,4.80
2024-02-08T10:26:28.114Z,5.43
2024-02-08T10:28:59.199Z,5.00
2024-02-08T10:31:27.438Z,4.20
2024-02-08T10:34:09.898Z,5.33
2024-02-08T10:36:40.948Z,4.60
2024-02-08T10:39:24.877Z,5.30
2024-02-08T10:42:00.271Z,6.10
2024-02-08T10:44:34.416Z,5.10
2024-02-08T10:47:09.173Z,5.17
2024-02-08T10:49:45.929Z,5.77
2024-02-08T10:52:17.854Z,5.23
2024-02-08T10:54:52.655Z,5.97
2024-02-08T10:57:41.241Z,5.70
2024-02-08T11:00:31.646Z,5.50
2024-02-08T11:03:09.263Z,8.57
2024-02-08T11:05:49.586Z,7.30
2024-02-08T11:08:26.155Z,7.00
2024-02-08T11:11:00.103Z,6.93
2024-02-08T11:13:31.494Z,7.60
2024-02-08T11:16:20.793Z,6.93
2024-02-08T11:18:52.578Z,5.80
2024-02-08T11:21:29.767Z,6.20
2024-02-08T11:23:58.233Z,6.33
2024-02-08T11:26:28.305Z,5.50
2024-02-08T11:29:03.701Z,5.60
2024-02-08T11:31:43.380Z,5.27
2024-02-08T11:34:15.428Z,5.43
2024-02-08T11:36:44.710Z,5.20
2024-02-08T11:39:28.911Z,4.90
2024-02-08T11:42:01.286Z,5.00
2024-02-08T11:44:37.976Z,1.33
2024-02-08T11:47:20.235Z,1.33
2024-02-08T11:50:02.828Z,1.27
2024-02-08T11:52:31.648Z,1.20
2024-02-08T11:55:07.428Z,1.50
2024-02-08T11:57:41.809Z,1.00
2024-02-08T12:00:18.617Z,0.87
2024-02-08T12:02:58.265Z,1.40
2024-02-08T12:05:27.768Z,1.33
2024-02-08T12:08:09.683Z,1.20
2024-02-08T12:10:40.072Z,1.37
2024-02-08T12:13:15.093Z,1.17
2024-02-08T12:15:56.886Z,1.30
2024-02-08T12:18:29.220Z,1.50
2024-02-08T12:20:58.613Z,1.50
2024-02-08T12:23:32.306Z,1.10
2024-02-08T12:26:03.930Z,3.87
2024-02-08T12:28:35.723Z,1.50
2024-02-08T12:31:17.333Z,3.40
2024-02-08T12:33:52.546Z,2.70
2024-02-08T12:36:24.910Z,1.30
2024-02-08T12:38:55.136Z,1.20
2024-02-08T12:41:23.818Z,1.60
2024-02-08T12:43:53.285Z,1.90
2024-02-08T12:46:21.745Z,2.30
2024-02-08T12:48:51.557Z,1.80
2024-02-08T12:51:20.424Z,2.00
2024-02-08T12:53:50.931Z,2.23
2024-02-08T12:56:23.359Z,2.53
2024-02-08T12:59:03.740Z,2.60
2024-02-08T13:01:40.191Z,1.90
2024-02-08T13:04:10.002Z,4.43
2024-02-08T13:06:39.351Z,1.70
2024-02-08T13:09:26.879Z,2.90
2024-02-08T13:12:17.114Z,3.73
2024-02-08T13:14:58.114Z,4.57
2024-02-08T13:17:27.723Z,2.50
2024-02-08T13:19:58.488Z,1.40
2024-02-08T13:22:32.216Z,1.80
2024-02-08T13:25:04.438Z,2.30
2024-02-08T13:27:32.361Z,1.93
2024-02-08T13:30:02.811Z,1.70
2024-02-08T13:32:31.765Z,1.60
2024-02-08T13:35:02.735Z,1.60
2024-02-08T13:37:31.209Z,1.60
2024-02-08T13:40:04.469Z,1.83
2024-02-08T13:42:43.558Z,1.70
2024-02-08T13:45:26.405Z,1.70
2024-02-08T13:47:59.204Z,1.50
2024-02-08T13:50:32.625Z,1.80
2024-02-08T13:53:03.807Z,1.40
2024-02-08T13:58:08.228Z,1.60
2024-02-08T14:00:36.982Z,1.60
2024-02-08T14:03:09.450Z,1.80
2024-02-08T14:05:41.670Z,2.73
2024-02-08T14:08:18.503Z,2.07
2024-02-08T14:10:47.351Z,2.27
2024-02-08T14:13:20.425Z,3.70
2024-02-08T14:15:49.497Z,2.90
2024-02-08T14:18:28.906Z,3.00
2024-02-08T14:21:03.962Z,3.03
2024-02-08T14:23:32.421Z,3.17
2024-02-08T14:26:10.836Z,3.47
2024-02-08T14:28:43.481Z,3.67
2024-02-08T14:31:12.326Z,3.47
2024-02-08T14:33:42.834Z,3.30
2024-02-08T14:36:12.824Z,2.97
2024-02-08T14:38:42.359Z,3.67
2024-02-08T14:41:26.549Z,4.37
2024-02-08T14:43:55.611Z,4.23
2024-02-08T14:46:27.921Z,5.00
2024-02-08T14:48:56.149Z,4.90
2024-02-08T14:51:31.522Z,5.47
2024-02-08T14:54:00.127Z,5.00
2024-02-08T14:56:29.004Z,5.17
2024-02-08T14:59:10.577Z,4.90
2024-02-08T15:01:41.530Z,5.00
2024-02-08T15:04:17.336Z,4.67
2024-02-08T15:07:07.272Z,4.90
2024-02-08T15:09:49.257Z,5.10
2024-02-08T15:12:28.834Z,5.03
2024-02-08T15:14:56.421Z,4.10
2024-02-08T15:17:25.447Z,4.83
2024-02-08T15:19:54.474Z,5.93
2024-02-08T15:22:42.156Z,4.03
2024-02-08T15:25:10.400Z,5.13
2024-02-08T15:27:54.122Z,4.07
2024-02-08T15:30:36.443Z,4.20
2024-02-08T15:33:18.089Z,3.67
2024-02-08T15:35:53.163Z,3.30
2024-02-08T15:38:37.138Z,2.97
2024-02-08T15:41:15.800Z,3.30
2024-02-08T15:43:44.122Z,3.20
2024-02-08T15:46:12.304Z,4.17
2024-02-08T15:48:45.938Z,3.70
2024-02-08T15:51:15.053Z,4.03
2024-02-08T15:53:50.335Z,3.60
2024-02-08T15:56:20.386Z,3.80
2024-02-08T15:58:49.404Z,3.20
2024-02-08T16:01:21.533Z,4.13
2024-02-08T16:03:56.401Z,3.80
2024-02-08T16:06:44.154Z,3.27
2024-02-08T16:09:28.280Z,3.60
2024-02-08T16:12:01.513Z,4.30
2024-02-08T16:14:32.150Z,3.97
2024-02-08T16:17:30.676Z,3.40
2024-02-08T16:19:59.582Z,3.80
2024-02-08T16:22:31.241Z,3.67
2024-02-08T16:25:04.145Z,3.27
2024-02-08T16:27:34.814Z,4.00
2024-02-08T16:30:08.750Z,3.40
2024-02-08T16:32:42.787Z,4.10
2024-02-08T16:35:34.374Z,4.27
2024-02-08T16:38:09.972Z,3.80
2024-02-08T16:40:45.749Z,4.57
2024-02-08T16:43:15.500Z,4.30
2024-02-08T16:45:48.642Z,5.47
2024-02-08T16:48:22.483Z,4.17
2024-02-08T16:50:51.674Z,4.20
2024-02-08T16:53:23.578Z,5.93
2024-02-08T16:56:00.025Z,4.23
2024-02-08T16:58:33.383Z,4.47
2024-02-08T17:01:06.601Z,4.57
2024-02-08T17:03:51.714Z,4.97
2024-02-08T17:06:28.242Z,5.60
2024-02-08T17:09:10.701Z,4.67
2024-02-08T17:11:41.657Z,5.20
2024-02-08T17:14:24.464Z,4.97
2024-02-08T17:17:00.857Z,5.07
2024-02-08T17:19:41.910Z,4.93
2024-02-08T17:22:19.897Z,5.33
2024-02-08T17:25:04.865Z,6.00
2024-02-08T17:27:50.412Z,5.87
2024-02-08T17:30:26.378Z,5.73
2024-02-08T17:32:55.269Z,4.67
2024-02-08T17:35:24.000Z,6.07
2024-02-08T17:38:01.426Z,5.40
2024-02-08T17:40:32.233Z,5.80
2024-02-08T17:43:10.374Z,5.00
2024-02-08T17:45:48.559Z,6.30
2024-02-08T17:48:21.539Z,4.73
2024-02-08T17:50:52.056Z,5.20
2024-02-08T17:53:23.770Z,5.07
2024-02-08T17:55:54.599Z,4.80
2024-02-08T17:58:25.218Z,4.47
2024-02-08T18:00:53.718Z,4.10
2024-02-08T18:03:27.382Z,3.63
2024-02-08T18:05:57.580Z,3.83
2024-02-08T18:08:26.939Z,3.87
2024-02-08T18:10:55.415Z,3.57
2024-02-08T18:13:28.171Z,3.30
2024-02-08T18:15:58.072Z,3.33
2024-02-08T18:18:26.501Z,4.20
2024-02-08T18:20:59.047Z,4.00
2024-02-08T18:23:33.928Z,4.17
2024-02-08T18:26:04.800Z,3.80
2024-02-08T18:28:34.411Z,4.67
2024-02-08T18:31:07.216Z,3.83
2024-02-08T18:33:36.317Z,5.10
2024-02-08T18:36:09.019Z,4.93
2024-02-08T18:38:37.385Z,5.13
2024-02-08T18:41:07.624Z,4.73
2024-02-08T18:43:37.466Z,5.90
2024-02-08T18:46:07.278Z,6.30
2024-02-08T18:48:41.349Z,7.07
2024-02-08T18:51:10.690Z,6.20
2024-02-08T18:53:40.212Z,6.57
2024-02-08T18:56:11.634Z,6.30
2024-02-08T18:58:42.835Z,7.20
2024-02-08T19:01:14.102Z,7.27
2024-02-08T19:03:47.442Z,6.67
2024-02-08T19:06:17.067Z,6.80
2024-02-08T19:08:45.602Z,6.83
2024-02-08T19:11:13.866Z,6.87
2024-02-08T19:13:46.148Z,7.30
2024-02-08T19:16:16.239Z,6.70
2024-02-08T19:18:47.397Z,6.80
2024-02-08T19:21:26.758Z,6.57
2024-02-08T19:24:00.040Z,6.30
2024-02-08T19:26:28.670Z,6.57
2024-02-08T19:28:58.562Z,6.37
2024-02-08T19:31:28.531Z,6.20
2024-02-08T19:34:04.627Z,6.60
2024-02-08T19:36:33.846Z,6.40
2024-02-08T19:39:22.774Z,6.03
2024-02-08T19:41:51.649Z,7.97
2024-02-08T19:44:26.177Z,7.20
2024-02-08T19:47:03.698Z,7.10
2024-02-08T19:49:40.327Z,7.07
2024-02-08T19:52:16.230Z,6.97
2024-02-08T19:54:50.199Z,7.07
2024-02-08T19:57:20.562Z,6.90
2024-02-08T19:59:50.917Z,7.40
2024-02-08T20:02:31.151Z,7.10
2024-02-08T20:05:01.831Z,7.43
2024-02-08T20:07:32.357Z,7.50
2024-02-08T20:10:02.770Z,6.90
2024-02-08T20:12:33.749Z,6.17
2024-02-08T20:15:17.262Z,6.30
2024-02-08T20:17:46.737Z,7.90
2024-02-08T20:20:20.185Z,6.57
2024-02-08T20:22:53.049Z,6.50
2024-02-08T20:25:27.066Z,6.93
2024-02-08T20:27:56.744Z,5.87
2024-02-08T20:30:27.029Z,6.07
2024-02-08T20:33:00.823Z,5.90
2024-02-08T20:35:30.813Z,6.90
2024-02-08T20:38:00.643Z,6.10
2024-02-08T20:40:29.499Z,6.00
2024-02-08T20:43:00.425Z,5.67
2024-02-08T20:45:32.988Z,6.20
2024-02-08T20:48:08.982Z,6.30
2024-02-08T20:50:40.447Z,6.47
2024-02-08T20:53:10.104Z,5.80
2024-02-08T20:55:41.431Z,5.57
2024-02-08T20:58:14.185Z,5.50
2024-02-08T21:00:44.757Z,5.23
2024-02-08T21:03:14.646Z,5.60
2024-02-08T21:05:43.474Z,5.67
2024-02-08T21:08:12.006Z,5.77
2024-02-08T21:10:42.237Z,6.60
2024-02-08T21:13:13.297Z,5.83
2024-02-08T21:15:43.638Z,5.40
2024-02-08T21:18:16.431Z,6.23
2024-02-08T21:20:45.137Z,5.10
2024-02-08T21:23:12.374Z,5.97
2024-02-08T21:25:41.951Z,5.70
2024-02-08T21:28:11.862Z,5.97
2024-02-08T21:30:42.831Z,5.40
2024-02-08T21:33:11.783Z,5.57
2024-02-08T21:35:43.475Z,6.13
2024-02-08T21:38:12.121Z,5.77
2024-02-08T21:40:41.631Z,6.10
2024-02-08T21:43:11.613Z,6.60
2024-02-08T21:45:42.999Z,6.77
2024-02-08T21:48:15.841Z,5.17
2024-02-08T21:50:48.371Z,5.87
2024-02-08T21:53:16.988Z,5.80
2024-02-08T21:55:45.811Z,6.03
2024-02-08T21:58:14.684Z,6.00
2024-02-08T22:03:28.404Z,6.47
2024-02-08T22:06:00.219Z,5.63
2024-02-08T22:08:30.111Z,6.07
2024-02-08T22:10:58.562Z,5.80
2024-02-08T22:13:28.741Z,5.63
2024-02-08T22:15:57.573Z,6.57
2024-02-08T22:18:26.305Z,5.80
2024-02-08T22:20:54.599Z,5.90
2024-02-08T22:23:24.198Z,6.23
2024-02-08T22:25:52.388Z,6.73
2024-02-08T22:28:20.657Z,5.70
2024-02-08T22:30:49.269Z,7.00
2024-02-08T22:33:19.437Z,5.40
2024-02-08T22:35:47.664Z,6.90
2024-02-08T22:38:20.504Z,5.57
2024-02-08T22:40:50.044Z,6.10
2024-02-08T22:43:18.221Z,5.87
2024-02-08T22:45:46.719Z,6.63
2024-02-08T22:48:16.769Z,6.80
2024-02-08T22:50:47.246Z,6.63
2024-02-08T22:53:15.843Z,7.10
2024-02-08T22:55:43.995Z,7.33
2024-02-08T22:58:13.814Z,7.00
2024-02-08T23:00:51.228Z,7.03
2024-02-08T23:03:19.757Z,6.30
2024-02-08T23:05:55.223Z,9.43
2024-02-08T23:08:24.040Z,6.30
2024-02-08T23:10:52.389Z,6.73
2024-02-08T23:13:22.027Z,7.47
2024-02-08T23:15:50.318Z,5.87
2024-02-08T23:18:19.656Z,7.07
2024-02-08T23:20:48.362Z,6.70
2024-02-08T23:23:16.717Z,6.07
2024-02-08T23:25:44.937Z,6.83
2024-02-08T23:28:13.210Z,6.97
2024-02-08T23:30:44.617Z,7.13
2024-02-08T23:33:14.557Z,7.30
2024-02-08T23:35:42.856Z,7.30
2024-02-08T23:38:11.396Z,6.57
2024-02-08T23:40:40.516Z,6.83
2024-02-08T23:43:09.654Z,7.10
2024-02-08T23:45:39.797Z,6.87
2024-02-08T23:48:10.471Z,7.63
2024-02-08T23:50:39.036Z,7.40
2024-02-08T23:53:07.204Z,8.10
2024-02-08T23:55:38.708Z,8.27
2024-02-08T23:58:11.528Z,6.80
